Three Rivers, Mississippi
Current Conditions -  °F | °C
As of 10:53 AM on Saturday 20 Dec 2014 (Local Time) from KPQL Reporting Station
Overcast Overcast  
Wind Chill: 51°   Ceiling: 800
Heat Index: 51°   Visibility: 10mi
Dew Point: 49°   Wind: 10mph
Humidity: 92%   Direction: 30°NNE
Pressure: 30.15"   Gusts: NA
Location:  30.3649°N, 88.5432°W
Report Text: KPQL 201653Z 03009KT 10SM OVC008 11/09 A3015 RMK AO2 CIG 007V011 SLP210 T01060094
Loading
Personal Weather Stations






























Interactive Weather Map New forecast layout! Learn more

10-Day Weather Forecast

Advertisements
Track Severe Weather on mobile